This is the latest recevied weather packets stored in our database for station/object VK3VJP-13. If no packets are shown the sender has not sent any weather packets the latest 10 day(s).
| Time | Temp. | Humidity | Pressure | Rain* | Wind** | Luminosity | Snow |
|---|---|---|---|---|---|---|---|
| 1777713791 | 13.89° C | 89% | 1013.8 hPa | 1.02 mm | - | - | - |
| 1777713491 | 13.89° C | 89% | 1013.8 hPa | 1.27 mm | - | - | - |
| 1777713191 | 13.89° C | 89% | 1013.9 hPa | 1.27 mm | - | - | - |
| 1777712891 | 13.89° C | 89% | 1013.9 hPa | 1.52 mm | - | - | - |
| 1777712591 | 13.89° C | 89% | 1013.9 hPa | 1.52 mm | - | - | - |
| 1777712291 | 13.89° C | 88% | 1013.9 hPa | 2.03 mm | - | - | - |
| 1777711991 | 13.89° C | 88% | 1013.8 hPa | 2.03 mm | - | - | - |
| 1777711691 | 13.89° C | 88% | 1013.9 hPa | 1.78 mm | - | - | - |
| 1777711391 | 13.89° C | 87% | 1013.8 hPa | 1.78 mm | - | - | - |
| 1777711091 | 13.89° C | 87% | 1013.8 hPa | 1.52 mm | - | - | - |
| 1777710791 | 13.89° C | 86% | 1013.8 hPa | 1.52 mm | - | - | - |
| 1777710491 | 14.44° C | 85% | 1013.8 hPa | 1.52 mm | - | - | - |
| 1777710191 | 14.44° C | 83% | 1013.6 hPa | 1.52 mm | - | - | - |
| 1777709891 | 15° C | 82% | 1013.6 hPa | 1.27 mm | - | - | - |
| 1777709591 | 15° C | 79% | 1013.6 hPa | 1.02 mm | - | - | - |
| 1777709291 | 15.56° C | 76% | 1013.9 hPa | 0.76 mm | - | - | - |
| 1777708991 | 16.67° C | 73% | 1014.1 hPa | 0.51 mm | - | - | - |
| 1777708691 | 17.22° C | 68% | 1013.9 hPa | 0 mm | - | - | - |
| 1777708391 | 17.78° C | 62% | 1013.7 hPa | 0 mm | - | - | - |
| 1777708091 | 18.33° C | 59% | 1013.5 hPa | 0 mm | - | - | - |
| 1777707791 | 18.89° C | 56% | 1013.4 hPa | 0 mm | - | - | - |
| 1777707491 | 18.89° C | 56% | 1013.3 hPa | 0 mm | - | - | - |
| 1777707191 | 18.89° C | 55% | 1013.2 hPa | 0 mm | - | - | - |
| 1777706891 | 18.89° C | 54% | 1013.1 hPa | 0 mm | - | - | - |
| 1777706591 | 18.89° C | 55% | 1013.1 hPa | 0 mm | - | - | - |
* Rain latest hour (hover to see other rain measurements)
** Current wind speed in m/s (hover to see current wind gust speed)